UPSVAC Airport Information Service

Ontario International Airport (700-799)

ICAO: KONT Country: United States
Latitude: 34.056 Longitude: -117.601
Latest Arrival : UPS1112 (KSDF-KONT) Latest Departure : UPS205 (KONT-KDEN)


WX CaptureLIVE
Data provided by noaa.gov | Fetched at 13:27:21

METAR : KONT 141310Z 26008KT 10SM BKN014 OVC044 12/08 A2995 RMK AO2 T01170083 $

TAF : KONT 141232Z 1413/1518 25008KT P6SM FEW015 SCT025 BKN050 TEMPO 1413/1415 BKN025 FM142000 26012KT P6SM SCT040 FM150500 25006KT P6SM BKN035


Runway Data for KONT
Data provided by openaviationdata.com

Runway ID Mag Var Hdg Length Elevation Surface ILS Freq ILS Id ILS Slope
08L 14 75° 12185 ft 944 ft Asphalt 109.7 IAOD 3
08R 14 75° 10187 ft 944 ft Concrete -- -- --
26L 14 255° 10187 ft 944 ft Concrete 111.35 ITWO 3
26R 14 255° 12185 ft 944 ft Asphalt 109.7 IONT 3

Ontario International Airport (700-799), United States
Use only for reference purposes



Not for navigational purposes.